Time;durP1;ratioP1;P1;durP2;ratioP2;P2;SDS_P1;SDS_P2;PMS_P1;PMS_P2;Temp;Humidity;BMP_temperature;BMP_pressure;BME280_temperature;BME280_humidity;BME280_pressure;Samples;Min_cycle;Max_cycle;Signal;HPM_P1;HPM_P2
2023/06/20 00:01:32;;;;;;;3.67;2.88;;;18.90;99.90;;;;;;4878694;29;20230;-84
2023/06/20 00:03:58;;;;;;;6.97;2.58;;;18.90;99.90;;;;;;4878630;29;20176;-84
2023/06/20 00:06:23;;;;;;;3.20;2.70;;;19.00;99.90;;;;;;4878922;29;20188;-84
2023/06/20 00:08:50;;;;;;;3.75;2.63;;;19.00;99.90;;;;;;4878655;29;20190;-84
2023/06/20 00:11:16;;;;;;;5.30;2.60;;;19.00;99.90;;;;;;4880064;29;20176;-83
2023/06/20 00:13:42;;;;;;;3.63;2.72;;;18.90;99.90;;;;;;4879818;29;20187;-83
2023/06/20 00:16:09;;;;;;;4.45;2.90;;;18.90;99.90;;;;;;4879922;29;20183;-84
2023/06/20 00:18:35;;;;;;;3.70;2.60;;;18.80;99.90;;;;;;4879930;29;20204;-84
2023/06/20 00:21:01;;;;;;;3.58;2.75;;;18.80;99.90;;;;;;4878528;29;20645;-84
2023/06/20 00:23:29;;;;;;;5.63;3.08;;;18.80;99.90;;;;;;4878474;29;20691;-84
2023/06/20 00:25:55;;;;;;;3.35;2.55;;;18.90;99.90;;;;;;4878496;29;20615;-84
2023/06/20 00:28:21;;;;;;;6.60;2.90;;;18.90;99.90;;;;;;4879957;29;20180;-84
2023/06/20 00:30:47;;;;;;;3.28;2.83;;;18.90;99.90;;;;;;4878362;29;20221;-87
2023/06/20 00:33:13;;;;;;;3.70;2.78;;;18.90;99.90;;;;;;4878606;29;20188;-86
2023/06/20 00:35:38;;;;;;;3.22;2.92;;;18.90;99.90;;;;;;4878738;29;20568;-85
2023/06/20 00:38:04;;;;;;;4.00;3.13;;;18.90;99.90;;;;;;4879572;29;20180;-84
2023/06/20 00:40:30;;;;;;;4.20;2.78;;;18.80;99.90;;;;;;4879524;29;20179;-84
2023/06/20 00:42:56;;;;;;;5.25;3.00;;;18.80;99.90;;;;;;4878525;29;20219;-84
2023/06/20 00:45:32;;;;;;;3.90;2.95;;;18.80;99.90;;;;;;4879815;29;20271;-84
2023/06/20 00:48:00;;;;;;;6.15;2.72;;;18.80;99.90;;;;;;4880034;29;20586;-84
2023/06/20 00:50:28;;;;;;;3.33;3.00;;;18.80;99.90;;;;;;4878277;29;20180;-84
2023/06/20 00:53:05;;;;;;;3.15;2.80;;;18.80;99.90;;;;;;4879379;29;20172;-84
2023/06/20 00:55:33;;;;;;;3.38;3.08;;;18.80;99.90;;;;;;4878460;29;20611;-84
2023/06/20 00:58:00;;;;;;;4.38;2.85;;;18.60;99.90;;;;;;4879653;29;20187;-84
2023/06/20 01:00:30;;;;;;;3.95;2.60;;;18.60;99.90;;;;;;4877961;29;20242;-84
2023/06/20 01:03:03;;;;;;;3.78;2.67;;;18.60;99.90;;;;;;4878247;29;20184;-84
2023/06/20 01:05:30;;;;;;;7.30;2.67;;;18.50;99.90;;;;;;4878286;29;20566;-84
2023/06/20 01:08:28;;;;;;;4.10;2.70;;;18.50;99.90;;;;;;4879506;29;20180;-84
2023/06/20 01:11:19;;;;;;;3.90;2.85;;;18.50;99.90;;;;;;4879524;29;20180;-83
2023/06/20 01:14:03;;;;;;;4.38;2.92;;;18.40;99.90;;;;;;4879364;29;20168;-83
2023/06/20 01:16:42;;;;;;;4.80;2.95;;;18.50;99.90;;;;;;4881817;29;20176;-84
2023/06/20 01:19:44;;;;;;;3.70;2.80;;;18.50;99.90;;;;;;4882706;29;20615;-84
2023/06/20 01:22:17;;;;;;;3.25;2.80;;;18.50;99.90;;;;;;4882605;29;20179;-84
2023/06/20 01:24:47;;;;;;;4.93;3.28;;;18.40;99.90;;;;;;4881545;29;20213;-84
2023/06/20 01:27:41;;;;;;;6.28;3.20;;;18.40;99.90;;;;;;4881439;29;20654;-84
2023/06/20 01:30:15;;;;;;;3.83;2.90;;;18.40;99.90;;;;;;4879219;29;20698;-84
2023/06/20 01:32:46;;;;;;;4.18;3.22;;;18.30;99.90;;;;;;4881399;29;20523;-84
2023/06/20 01:35:16;;;;;;;3.50;3.20;;;18.30;99.90;;;;;;4881354;29;20173;-84
2023/06/20 01:37:43;;;;;;;5.82;3.25;;;18.30;99.90;;;;;;4881318;29;20228;-84
2023/06/20 01:40:13;;;;;;;5.50;3.67;;;18.30;99.90;;;;;;4882316;29;20314;-84
2023/06/20 01:42:41;;;;;;;3.83;3.30;;;18.30;99.90;;;;;;4882302;29;20257;-84
2023/06/20 01:45:10;;;;;;;4.10;3.70;;;18.20;99.90;;;;;;4882180;29;20176;-84
2023/06/20 01:47:38;;;;;;;4.30;3.88;;;18.20;99.90;;;;;;4880526;29;20194;-84
2023/06/20 01:50:06;;;;;;;4.75;3.80;;;18.20;99.90;;;;;;4882296;29;20180;-84
2023/06/20 01:52:36;;;;;;;5.03;4.43;;;18.20;99.90;;;;;;4881048;29;20271;-85
2023/06/20 01:55:04;;;;;;;8.93;6.43;;;18.30;99.90;;;;;;4881040;29;20180;-84
2023/06/20 01:57:33;;;;;;;9.27;6.90;;;18.30;99.90;;;;;;4882158;29;20236;-84
2023/06/20 02:00:00;;;;;;;7.80;7.10;;;18.40;99.90;;;;;;4881349;29;20822;-84
2023/06/20 02:02:28;;;;;;;7.75;7.05;;;18.40;99.90;;;;;;4882116;29;20196;-85
2023/06/20 02:04:58;;;;;;;7.75;7.05;;;18.50;99.90;;;;;;4880878;29;20183;-84
2023/06/20 02:07:26;;;;;;;8.23;7.43;;;18.60;99.90;;;;;;4882057;29;20205;-84
2023/06/20 02:09:54;;;;;;;7.80;7.00;;;18.60;99.90;;;;;;4881767;29;20191;-84
2023/06/20 02:12:20;;;;;;;9.35;7.65;;;18.60;99.90;;;;;;4880599;29;20599;-82
2023/06/20 02:14:48;;;;;;;8.60;7.63;;;18.70;99.90;;;;;;4882007;29;20177;-85
2023/06/20 02:17:15;;;;;;;9.30;8.38;;;18.70;99.90;;;;;;4882025;29;20179;-85
2023/06/20 02:19:41;;;;;;;8.75;7.90;;;18.80;99.90;;;;;;4880381;29;20223;-84
2023/06/20 02:22:11;;;;;;;8.63;7.53;;;18.80;99.90;;;;;;4881511;29;20558;-83
2023/06/20 02:24:37;;;;;;;10.07;7.95;;;18.80;99.90;;;;;;4881636;29;20183;-84
2023/06/20 02:27:07;;;;;;;8.60;7.30;;;18.90;99.90;;;;;;4879460;29;20188;-84
2023/06/20 02:29:37;;;;;;;8.48;6.82;;;18.80;99.90;;;;;;4880295;29;20263;-84
2023/06/20 02:32:05;;;;;;;7.80;7.00;;;18.70;99.90;;;;;;4880391;29;20176;-83
2023/06/20 02:34:33;;;;;;;7.68;6.97;;;18.70;99.90;;;;;;4881464;29;20225;-84
2023/06/20 02:37:00;;;;;;;8.85;6.57;;;18.70;99.90;;;;;;4880025;29;20305;-83
2023/06/20 02:39:26;;;;;;;7.00;6.40;;;18.60;99.90;;;;;;4880013;29;20220;-84
2023/06/20 02:41:51;;;;;;;7.45;6.80;;;18.60;99.90;;;;;;4881327;29;20176;-84
2023/06/20 02:44:17;;;;;;;7.18;6.55;;;18.60;99.90;;;;;;4881462;29;20728;-84
2023/06/20 02:47:06;;;;;;;7.35;6.70;;;18.50;99.90;;;;;;4881256;29;20183;-84
2023/06/20 02:49:45;;;;;;;7.90;7.10;;;18.50;99.90;;;;;;4881032;29;20176;-85
2023/06/20 02:52:31;;;;;;;10.05;7.05;;;18.50;99.90;;;;;;4881201;29;20183;-83
2023/06/20 02:55:19;;;;;;;7.30;6.60;;;18.50;99.90;;;;;;4879967;29;20223;-84
2023/06/20 02:57:47;;;;;;;8.52;6.80;;;18.50;99.90;;;;;;4879628;29;20286;-84
2023/06/20 03:00:13;;;;;;;8.00;7.20;;;18.40;99.90;;;;;;4879498;29;20612;-84
2023/06/20 03:03:02;;;;;;;7.85;7.05;;;18.40;99.90;;;;;;4881056;29;20180;-84
2023/06/20 03:05:35;;;;;;;10.07;7.35;;;18.30;99.90;;;;;;4879654;29;20218;-84
2023/06/20 03:08:03;;;;;;;9.90;8.05;;;18.30;99.90;;;;;;4880882;29;20508;-84
2023/06/20 03:10:30;;;;;;;8.55;7.75;;;18.30;99.90;;;;;;4880490;29;20180;-84
2023/06/20 03:12:59;;;;;;;8.05;7.03;;;18.40;99.90;;;;;;4879514;29;20187;-84
2023/06/20 03:15:24;;;;;;;11.93;7.70;;;18.40;99.90;;;;;;4879565;29;20219;-84
2023/06/20 03:17:50;;;;;;;8.77;7.88;;;18.40;99.90;;;;;;4880718;29;20218;-84
2023/06/20 03:20:15;;;;;;;8.25;7.47;;;18.40;99.90;;;;;;4880527;29;20610;-84
2023/06/20 03:22:41;;;;;;;8.45;7.65;;;18.40;99.90;;;;;;4878667;29;20180;-83
2023/06/20 03:25:07;;;;;;;11.73;8.18;;;18.40;99.90;;;;;;4879321;29;20179;-84
2023/06/20 03:27:33;;;;;;;9.45;8.60;;;18.40;99.90;;;;;;4879379;29;20495;-84
2023/06/20 03:30:03;;;;;;;9.88;8.73;;;18.40;99.90;;;;;;4880595;29;20187;-85
2023/06/20 03:32:29;;;;;;;10.75;9.70;;;18.30;99.90;;;;;;4879127;29;20184;-84
2023/06/20 03:34:55;;;;;;;9.90;9.00;;;18.30;99.90;;;;;;4879312;29;20184;-84
2023/06/20 03:37:21;;;;;;;10.88;9.77;;;18.30;99.90;;;;;;4880197;29;20184;-84
2023/06/20 03:39:46;;;;;;;13.88;9.18;;;18.40;99.90;;;;;;4879976;29;20220;-84
2023/06/20 03:42:13;;;;;;;10.90;9.80;;;18.40;99.90;;;;;;4879104;29;20631;-85
2023/06/20 03:44:39;;;;;;;10.70;9.60;;;18.50;99.90;;;;;;4879152;29;20275;-84
2023/06/20 03:47:05;;;;;;;13.77;10.30;;;18.50;99.90;;;;;;4880466;29;20224;-85
2023/06/20 03:49:30;;;;;;;12.20;10.95;;;18.60;99.90;;;;;;4878803;29;20194;-84
2023/06/20 03:51:56;;;;;;;13.32;11.27;;;18.60;99.90;;;;;;4878816;29;20188;-84
2023/06/20 03:54:22;;;;;;;13.65;10.57;;;18.60;99.90;;;;;;4879295;29;20188;-84
2023/06/20 03:56:47;;;;;;;11.02;9.73;;;18.70;99.90;;;;;;4878867;29;20188;-84
2023/06/20 03:59:14;;;;;;;12.65;11.35;;;18.80;99.90;;;;;;4878602;29;20243;-84
2023/06/20 04:01:40;;;;;;;10.88;9.63;;;18.90;99.90;;;;;;4880135;29;20176;-84
2023/06/20 04:04:06;;;;;;;12.82;10.68;;;18.90;99.90;;;;;;4880044;29;20179;-84
2023/06/20 04:06:31;;;;;;;12.02;10.73;;;18.90;99.90;;;;;;4879945;29;20184;-83
2023/06/20 04:08:58;;;;;;;12.30;10.65;;;19.00;99.90;;;;;;4878645;29;20199;-83
2023/06/20 04:11:24;;;;;;;10.57;9.48;;;18.90;99.90;;;;;;4878987;29;20517;-85
2023/06/20 04:13:50;;;;;;;12.63;9.77;;;19.00;99.90;;;;;;4879983;29;20204;-85
2023/06/20 04:16:15;;;;;;;9.98;9.07;;;19.10;99.90;;;;;;4878806;29;20215;-85
2023/06/20 04:18:41;;;;;;;12.43;10.38;;;19.10;99.90;;;;;;4878608;29;20214;-83
2023/06/20 04:21:07;;;;;;;14.23;9.98;;;19.20;99.90;;;;;;4879785;29;20195;-83
2023/06/20 04:23:34;;;;;;;11.57;10.40;;;19.20;99.90;;;;;;4878505;29;20220;-84
2023/06/20 04:25:59;;;;;;;12.00;10.80;;;19.30;99.90;;;;;;4878754;29;20187;-85
2023/06/20 04:28:25;;;;;;;12.20;10.45;;;19.30;99.90;;;;;;4879944;29;20176;-85
2023/06/20 04:30:52;;;;;;;12.02;10.32;;;19.40;99.90;;;;;;4879767;29;20187;-84
2023/06/20 04:33:19;;;;;;;11.32;10.13;;;19.50;99.90;;;;;;4878421;29;20258;-84
2023/06/20 04:35:45;;;;;;;12.73;9.77;;;19.60;99.90;;;;;;4878445;29;20184;-84
2023/06/20 04:38:10;;;;;;;12.75;10.25;;;19.70;99.90;;;;;;4879720;29;20184;-85
2023/06/20 04:40:36;;;;;;;11.40;9.70;;;19.90;99.90;;;;;;4878438;29;20655;-84
2023/06/20 04:43:03;;;;;;;13.07;10.38;;;20.00;99.90;;;;;;4878345;29;20635;-84
2023/06/20 04:45:30;;;;;;;10.82;9.73;;;20.10;99.90;;;;;;4877968;29;20214;-84
2023/06/20 04:47:56;;;;;;;12.23;10.43;;;20.20;99.90;;;;;;4879599;29;20176;-83
2023/06/20 04:50:22;;;;;;;11.02;9.85;;;20.30;99.90;;;;;;4879045;29;20191;-84
2023/06/20 04:52:48;;;;;;;12.25;10.07;;;20.30;99.90;;;;;;4883194;29;20184;-84
2023/06/20 04:55:14;;;;;;;12.18;9.70;;;20.30;99.90;;;;;;4882135;29;20188;-84
2023/06/20 04:57:40;;;;;;;10.70;8.57;;;20.30;99.90;;;;;;4882020;29;20546;-84
2023/06/20 05:00:12;;;;;;;11.88;9.80;;;20.30;99.90;;;;;;4881719;29;20726;-84
2023/06/20 05:02:42;;;;;;;11.23;9.98;;;20.40;99.90;;;;;;4881693;29;20217;-84
2023/06/20 05:05:11;;;;;;;10.40;8.73;;;20.40;99.90;;;;;;4881829;29;20199;-84
2023/06/20 05:07:40;;;;;;;11.52;8.80;;;20.50;99.90;;;;;;4883089;29;20184;-84
2023/06/20 05:10:06;;;;;;;9.90;8.50;;;20.50;99.90;;;;;;4883036;29;20559;-85
2023/06/20 05:12:32;;;;;;;11.48;8.82;;;20.60;99.90;;;;;;4882923;29;20557;-85
2023/06/20 05:14:59;;;;;;;12.75;8.70;;;20.80;99.90;;;;;;4881672;29;20279;-85
2023/06/20 05:17:24;;;;;;;8.73;7.72;;;20.80;99.90;;;;;;4881029;29;20578;-85
2023/06/20 05:19:50;;;;;;;9.93;7.55;;;20.80;99.90;;;;;;4881616;29;20211;-85
2023/06/20 05:22:17;;;;;;;9.57;7.55;;;20.90;99.90;;;;;;4881477;29;20188;-84
2023/06/20 05:24:43;;;;;;;15.57;8.88;;;20.90;99.90;;;;;;4882925;29;20176;-85
2023/06/20 05:27:08;;;;;;;10.50;8.95;;;20.90;99.90;;;;;;4882744;29;20624;-84
2023/06/20 05:29:34;;;;;;;11.02;9.00;;;20.90;99.90;;;;;;4882509;29;20199;-85
2023/06/20 05:32:00;;;;;;;10.07;8.13;;;20.80;99.90;;;;;;4882451;29;20176;-87
2023/06/20 05:34:25;;;;;;;11.23;8.45;;;20.90;99.90;;;;;;4881173;29;20219;-84
2023/06/20 05:36:51;;;;;;;12.77;8.68;;;21.00;99.90;;;;;;4881349;29;20247;-84
2023/06/20 05:39:17;;;;;;;9.63;8.27;;;21.00;99.90;;;;;;4882526;29;20219;-84
2023/06/20 05:41:43;;;;;;;12.88;8.10;;;21.00;99.90;;;;;;4882398;29;20195;-85
2023/06/20 05:44:08;;;;;;;9.60;8.23;;;21.00;99.90;;;;;;4881272;29;20188;-84
2023/06/20 05:46:34;;;;;;;10.65;7.90;;;21.00;99.90;;;;;;4881087;29;20271;-83
2023/06/20 05:49:00;;;;;;;10.98;8.27;;;21.00;99.90;;;;;;4882387;29;20180;-84
2023/06/20 05:51:29;;;;;;;9.15;7.63;;;20.90;99.90;;;;;;4881123;29;20671;-84
2023/06/20 05:53:58;;;;;;;10.45;8.20;;;20.90;99.90;;;;;;4881086;29;20203;-85
2023/06/20 05:56:24;;;;;;;10.57;8.55;;;20.90;99.90;;;;;;4882407;29;20247;-86
2023/06/20 05:58:50;;;;;;;9.15;8.23;;;20.90;99.90;;;;;;4880735;29;20295;-86
2023/06/20 06:01:16;;;;;;;9.85;8.85;;;20.80;99.90;;;;;;4880657;29;20179;-85
2023/06/20 06:03:42;;;;;;;11.00;7.80;;;20.80;99.90;;;;;;4880909;29;20190;-85
2023/06/20 06:06:10;;;;;;;10.27;7.30;;;20.80;99.90;;;;;;4880979;29;20272;-84
2023/06/20 06:08:36;;;;;;;8.55;7.50;;;20.80;99.90;;;;;;4880754;29;20234;-84
2023/06/20 06:11:02;;;;;;;9.15;7.05;;;20.80;99.90;;;;;;4881970;29;20583;-84
2023/06/20 06:13:29;;;;;;;8.85;7.88;;;20.80;99.90;;;;;;4881724;29;20201;-85
2023/06/20 06:15:55;;;;;;;9.82;8.38;;;20.80;99.90;;;;;;4881585;29;20187;-83
2023/06/20 06:18:21;;;;;;;11.55;7.80;;;20.80;99.90;;;;;;4880493;29;20271;-84
2023/06/20 06:20:46;;;;;;;8.00;7.20;;;20.70;99.90;;;;;;4880576;29;20639;-85
2023/06/20 06:23:12;;;;;;;9.25;7.85;;;20.80;99.90;;;;;;4881840;29;20168;-85
2023/06/20 06:25:38;;;;;;;11.40;7.65;;;20.70;99.90;;;;;;4881739;29;20168;-84
2023/06/20 06:28:03;;;;;;;9.43;7.35;;;20.70;99.90;;;;;;4880257;29;20215;-84
2023/06/20 06:30:32;;;;;;;10.25;7.05;;;20.70;99.90;;;;;;4881484;29;20179;-84
2023/06/20 06:33:01;;;;;;;10.60;7.60;;;20.70;99.90;;;;;;4880296;29;20654;-87
2023/06/20 06:35:30;;;;;;;10.20;7.93;;;20.70;99.90;;;;;;4880183;29;20198;-86
2023/06/20 06:37:57;;;;;;;10.38;8.13;;;20.60;99.90;;;;;;4880444;29;20503;-87
2023/06/20 06:40:23;;;;;;;9.70;8.43;;;20.50;99.90;;;;;;4881444;29;20267;-85
2023/06/20 06:42:50;;;;;;;11.82;8.02;;;20.40;99.90;;;;;;4881332;29;20184;-85
2023/06/20 06:45:16;;;;;;;11.50;9.30;;;20.40;99.90;;;;;;4880256;29;20251;-87
2023/06/20 06:47:42;;;;;;;11.85;9.18;;;20.30;99.90;;;;;;4881368;29;20635;-86
2023/06/20 06:50:08;;;;;;;10.27;9.20;;;20.30;99.90;;;;;;4881462;29;20177;-86
2023/06/20 06:52:36;;;;;;;10.48;9.25;;;20.30;99.90;;;;;;4881335;29;20510;-86
2023/06/20 06:55:02;;;;;;;10.57;9.48;;;20.30;99.90;;;;;;4880008;29;20184;-85
2023/06/20 06:57:28;;;;;;;12.50;9.57;;;20.30;99.90;;;;;;4881081;29;20228;-86
2023/06/20 06:59:54;;;;;;;12.63;10.05;;;20.30;99.90;;;;;;4879732;29;20247;-86
2023/06/20 07:02:21;;;;;;;13.13;8.95;;;20.30;99.90;;;;;;4879845;29;20575;-85
2023/06/20 07:04:48;;;;;;;10.73;8.85;;;20.30;99.90;;;;;;4880198;29;20526;-87
2023/06/20 07:07:14;;;;;;;11.48;9.07;;;20.30;99.90;;;;;;4881327;29;20177;-86
2023/06/20 07:09:39;;;;;;;12.82;10.10;;;20.20;99.90;;;;;;4880184;29;20187;-87
2023/06/20 07:12:06;;;;;;;11.57;9.93;;;20.30;99.90;;;;;;4880000;29;20200;-88
2023/06/20 07:14:33;;;;;;;13.40;10.05;;;20.30;99.90;;;;;;4880689;29;20201;-88
2023/06/20 07:16:59;;;;;;;11.50;10.30;;;20.20;99.90;;;;;;4879745;29;20631;-86
2023/06/20 07:19:25;;;;;;;12.23;10.38;;;20.20;99.90;;;;;;4879639;29;20252;-85
2023/06/20 07:21:51;;;;;;;12.90;11.15;;;20.10;99.90;;;;;;4879502;29;20256;-85
2023/06/20 07:24:17;;;;;;;11.45;10.32;;;20.10;99.90;;;;;;4879362;29;20535;-85
2023/06/20 07:26:42;;;;;;;14.45;10.88;;;20.10;99.90;;;;;;4880515;29;20555;-85
2023/06/20 07:29:08;;;;;;;11.82;10.02;;;20.10;99.90;;;;;;4879313;29;20184;-85
2023/06/20 07:31:34;;;;;;;13.13;10.80;;;20.20;99.90;;;;;;4879338;29;20243;-85
2023/06/20 07:33:59;;;;;;;11.95;10.52;;;20.20;99.90;;;;;;4879296;29;20267;-85
2023/06/20 07:36:25;;;;;;;14.40;11.18;;;20.20;99.90;;;;;;4878911;29;20179;-85
2023/06/20 07:38:51;;;;;;;13.48;11.48;;;20.20;99.90;;;;;;4880296;29;20235;-84
2023/06/20 07:41:16;;;;;;;17.23;11.63;;;20.20;99.90;;;;;;4879115;29;20219;-84
2023/06/20 07:43:43;;;;;;;13.70;11.80;;;20.20;99.90;;;;;;4879417;29;20176;-86
2023/06/20 07:46:09;;;;;;;18.23;11.88;;;20.10;99.90;;;;;;4879246;29;20816;-85
2023/06/20 07:48:34;;;;;;;14.27;12.25;;;20.10;99.90;;;;;;4880321;29;20619;-85
2023/06/20 07:51:00;;;;;;;13.82;12.40;;;20.10;99.90;;;;;;4880401;29;20227;-86
2023/06/20 07:53:27;;;;;;;13.38;12.00;;;20.10;99.90;;;;;;4878994;29;20192;-85
2023/06/20 07:55:54;;;;;;;13.73;12.32;;;20.20;99.90;;;;;;4880194;29;20620;-86
2023/06/20 07:58:20;;;;;;;14.05;12.65;;;20.20;99.90;;;;;;4880202;29;20183;-86
2023/06/20 08:00:46;;;;;;;16.52;12.98;;;20.20;99.90;;;;;;4879940;29;20784;-86
2023/06/20 08:03:12;;;;;;;15.80;13.20;;;20.30;99.90;;;;;;4880184;29;20203;-85
2023/06/20 08:05:38;;;;;;;14.95;12.82;;;20.30;99.90;;;;;;4880651;29;20206;-85
2023/06/20 08:08:04;;;;;;;14.50;12.57;;;20.20;99.90;;;;;;4878816;29;20180;-85
2023/06/20 08:10:29;;;;;;;16.17;12.93;;;20.30;99.90;;;;;;4878741;29;20184;-85
2023/06/20 08:12:55;;;;;;;15.70;13.95;;;20.30;99.90;;;;;;4878814;29;20530;-86
2023/06/20 08:15:21;;;;;;;15.60;13.85;;;20.30;99.90;;;;;;4879053;29;20236;-85
2023/06/20 08:17:46;;;;;;;15.73;14.13;;;20.40;99.90;;;;;;4878747;29;20203;-86
2023/06/20 08:20:12;;;;;;;14.98;13.48;;;20.50;99.90;;;;;;4879840;29;20674;-84
2023/06/20 08:22:38;;;;;;;15.50;13.60;;;20.60;99.90;;;;;;4879823;29;20202;-84
2023/06/20 08:25:05;;;;;;;16.02;14.13;;;20.70;99.90;;;;;;4878941;29;20187;-84
2023/06/20 08:27:32;;;;;;;16.00;14.30;;;20.70;99.90;;;;;;4883956;29;20168;-84
2023/06/20 08:29:58;;;;;;;18.58;14.15;;;20.80;99.90;;;;;;4882504;29;20611;-85
2023/06/20 08:32:23;;;;;;;16.85;14.55;;;20.80;99.90;;;;;;4882384;29;20213;-85
2023/06/20 08:34:49;;;;;;;16.48;14.73;;;20.90;99.90;;;;;;4882480;29;20286;-84
2023/06/20 08:37:18;;;;;;;15.68;14.10;;;21.10;99.90;;;;;;4883394;29;20172;-84
2023/06/20 08:39:44;;;;;;;15.43;13.60;;;21.10;99.90;;;;;;4882042;29;20215;-85
2023/06/20 08:42:12;;;;;;;15.98;14.30;;;21.20;99.90;;;;;;4882333;29;20236;-85
2023/06/20 08:44:38;;;;;;;15.43;13.77;;;21.30;99.90;;;;;;4882401;29;20274;-87
2023/06/20 08:47:05;;;;;;;15.38;13.60;;;21.40;99.90;;;;;;4882365;29;20282;-86
2023/06/20 08:49:30;;;;;;;14.68;13.18;;;21.50;99.90;;;;;;4882385;29;20188;-86
2023/06/20 08:52:01;;;;;;;16.38;14.68;;;21.60;99.90;;;;;;4883133;29;20782;-84
2023/06/20 08:54:30;;;;;;;15.52;13.93;;;21.70;99.90;;;;;;4882256;29;20188;-84
2023/06/20 08:56:56;;;;;;;15.48;13.82;;;21.90;99.90;;;;;;4882165;29;20184;-85
2023/06/20 08:59:22;;;;;;;14.20;12.75;;;22.00;99.90;;;;;;4883113;29;20247;-85
2023/06/20 09:01:48;;;;;;;14.15;12.75;;;22.30;99.90;;;;;;4883441;29;20172;-86
2023/06/20 09:04:14;;;;;;;15.60;13.85;;;22.40;99.90;;;;;;4882149;29;20310;-85
2023/06/20 09:06:40;;;;;;;13.88;12.43;;;22.60;99.90;;;;;;4881960;29;20263;-86
2023/06/20 09:09:13;;;;;;;12.55;11.32;;;22.60;99.90;;;;;;4882168;29;20195;-86
2023/06/20 09:11:39;;;;;;;12.93;11.68;;;22.80;99.90;;;;;;4882051;29;20240;-87
2023/06/20 09:14:05;;;;;;;12.00;10.70;;;22.80;99.90;;;;;;4883346;29;20183;-89
2023/06/20 09:16:31;;;;;;;12.27;11.05;;;22.70;99.90;;;;;;4882168;29;20235;-88
2023/06/20 09:19:03;;;;;;;13.70;10.82;;;22.60;99.90;;;;;;4881801;29;20223;-86
2023/06/20 09:21:29;;;;;;;10.80;9.80;;;22.50;99.90;;;;;;4882303;29;20184;-88
2023/06/20 09:24:04;;;;;;;11.65;10.43;;;22.50;99.90;;;;;;4882360;29;20510;-88
2023/06/20 09:26:31;;;;;;;10.77;9.68;;;22.60;99.90;;;;;;4882062;29;20183;-87
2023/06/20 09:29:12;;;;;;;10.68;9.57;;;22.80;99.90;;;;;;4882091;29;20207;-88
2023/06/20 09:31:49;;;;;;;10.40;9.40;;;22.90;99.90;;;;;;4882022;29;20205;-88
2023/06/20 09:34:18;;;;;;;11.93;9.90;;;23.10;99.90;;;;;;4882156;29;20204;-89
2023/06/20 09:36:47;;;;;;;10.38;8.52;;;23.20;99.90;;;;;;4881677;29;20184;-90
2023/06/20 09:39:20;;;;;;;8.82;8.02;;;23.40;99.90;;;;;;4881851;29;20279;-89
2023/06/20 09:41:51;;;;;;;8.15;7.35;;;23.80;99.90;;;;;;4881755;29;20627;-87
2023/06/20 09:44:20;;;;;;;7.85;6.95;;;24.00;99.90;;;;;;4881729;29;20187;-86
2023/06/20 09:46:47;;;;;;;6.88;6.28;;;24.00;99.90;;;;;;4881814;29;20227;-88
2023/06/20 09:49:15;;;;;;;7.20;6.20;;;24.10;99.90;;;;;;4882015;29;20176;-88
2023/06/20 09:51:48;;;;;;;6.68;5.95;;;24.10;99.90;;;;;;4882840;29;20222;-87
2023/06/20 09:54:22;;;;;;;6.53;5.93;;;24.30;99.90;;;;;;4881436;29;20212;-86
2023/06/20 09:56:52;;;;;;;6.18;5.60;;;24.30;99.90;;;;;;4882419;29;20487;-86
2023/06/20 09:59:21;;;;;;;6.88;5.07;;;24.20;99.90;;;;;;4880929;29;20239;-86
2023/06/20 10:01:49;;;;;;;5.13;4.65;;;24.10;99.90;;;;;;4881482;29;20188;-85
2023/06/20 10:04:16;;;;;;;6.38;5.47;;;24.10;99.90;;;;;;4881361;29;20184;-86
2023/06/20 10:06:42;;;;;;;13.48;5.38;;;24.00;99.90;;;;;;4882302;29;20179;-86
2023/06/20 10:09:09;;;;;;;6.28;5.10;;;24.00;99.90;;;;;;4880882;29;20525;-87
2023/06/20 10:11:37;;;;;;;5.55;5.05;;;23.90;99.90;;;;;;4882089;29;20228;-86
2023/06/20 10:14:04;;;;;;;5.97;5.47;;;23.80;99.90;;;;;;4880913;29;20516;-86
2023/06/20 10:16:30;;;;;;;6.95;5.50;;;23.60;99.90;;;;;;4881084;29;20195;-88
2023/06/20 10:18:56;;;;;;;6.10;5.57;;;23.60;99.90;;;;;;4880890;29;20216;-87
2023/06/20 10:21:57;;;;;;;5.95;5.45;;;23.80;99.90;;;;;;4876904;29;20188;-85
2023/06/20 10:24:28;;;;;;;7.18;5.72;;;24.00;99.90;;;;;;4879488;29;20192;-87
2023/06/20 10:26:59;;;;;;;9.95;6.30;;;24.30;99.90;;;;;;4868304;29;20185;-88
2023/06/20 10:29:25;;;;;;;7.43;5.90;;;24.60;99.90;;;;;;4862398;29;20300;-86
2023/06/20 10:31:56;;;;;;;7.38;6.68;;;24.80;99.90;;;;;;4862071;29;20272;-88
2023/06/20 10:34:29;;;;;;;6.70;5.97;;;24.90;99.90;;;;;;4892282;29;20191;-89
2023/06/20 10:37:28;;;;;;;7.15;6.45;;;24.90;99.90;;;;;;4879306;29;20200;-87
2023/06/20 10:39:58;;;;;;;7.78;7.03;;;24.90;99.90;;;;;;4876968;29;20236;-87
2023/06/20 10:42:41;;;;;;;7.35;6.65;;;24.90;99.90;;;;;;4878789;29;20246;-86
2023/06/20 10:45:21;;;;;;;8.65;6.88;;;25.20;99.90;;;;;;4879097;29;20230;-88
2023/06/20 10:47:48;;;;;;;9.30;6.78;;;25.30;99.90;;;;;;4878901;29;20183;-88
2023/06/20 10:50:15;;;;;;;7.63;6.85;;;25.30;99.90;;;;;;4879038;29;20647;-87
2023/06/20 10:52:41;;;;;;;6.57;5.97;;;25.60;99.90;;;;;;4881521;29;20250;-87
2023/06/20 10:55:08;;;;;;;6.95;6.25;;;25.80;99.90;;;;;;4878630;29;20180;-84
2023/06/20 10:57:35;;;;;;;6.85;6.25;;;26.00;99.90;;;;;;4877947;29;20188;-85
2023/06/20 11:00:10;;;;;;;7.18;6.47;;;26.10;99.90;;;;;;4879453;29;20236;-87
2023/06/20 11:02:36;;;;;;;7.63;6.72;;;26.10;99.90;;;;;;4880258;29;20203;-87
2023/06/20 11:05:04;;;;;;;9.15;7.47;;;26.20;99.90;;;;;;4880585;29;20651;-87
2023/06/20 11:07:29;;;;;;;8.02;6.85;;;26.20;99.90;;;;;;4877909;29;20192;-88
2023/06/20 11:09:55;;;;;;;7.40;6.70;;;26.30;99.90;;;;;;4878831;29;20188;-86
2023/06/20 11:12:21;;;;;;;7.55;6.85;;;26.50;99.90;;;;;;4880479;29;20188;-85
2023/06/20 11:14:46;;;;;;;7.78;7.05;;;26.60;99.90;;;;;;4880931;29;20190;-88
2023/06/20 11:17:12;;;;;;;8.80;8.00;;;26.60;99.90;;;;;;4878927;29;20183;-88
2023/06/20 11:19:39;;;;;;;8.30;7.50;;;26.50;99.90;;;;;;4880763;29;20710;-86
2023/06/20 11:22:05;;;;;;;8.10;7.22;;;26.20;99.90;;;;;;4878859;29;20191;-87
2023/06/20 11:24:31;;;;;;;8.60;7.45;;;26.00;99.90;;;;;;4880446;29;20176;-87
2023/06/20 11:27:13;;;;;;;7.82;7.03;;;26.00;99.90;;;;;;4877723;29;20598;-88
2023/06/20 11:29:39;;;;;;;7.53;6.70;;;26.10;99.90;;;;;;4880938;29;20265;-87
2023/06/20 11:32:09;;;;;;;7.10;6.40;;;26.10;99.90;;;;;;4880199;29;20188;-86
2023/06/20 11:34:53;;;;;;;6.65;6.03;;;26.30;99.90;;;;;;4878661;29;20635;-87
2023/06/20 11:37:21;;;;;;;5.30;4.80;;;26.30;99.90;;;;;;4879767;29;20201;-88
2023/06/20 11:39:47;;;;;;;5.55;5.00;;;26.50;99.90;;;;;;4880735;29;20212;-87
2023/06/20 11:42:19;;;;;;;4.63;4.22;;;26.70;99.90;;;;;;4880050;29;20184;-87
2023/06/20 11:44:45;;;;;;;5.00;4.57;;;26.90;99.90;;;;;;4879685;29;20184;-87
2023/06/20 11:47:11;;;;;;;4.72;4.32;;;27.10;99.90;;;;;;4878686;29;20190;-87
2023/06/20 11:49:42;;;;;;;5.72;4.97;;;26.90;99.90;;;;;;4879311;29;20287;-87
2023/06/20 11:52:09;;;;;;;5.20;4.70;;;26.80;99.90;;;;;;4878619;29;20192;-85
2023/06/20 11:54:47;;;;;;;4.85;4.45;;;26.70;99.90;;;;;;4879885;29;20198;-87
2023/06/20 11:57:27;;;;;;;5.20;4.70;;;26.60;99.90;;;;;;4875013;29;20183;-87
2023/06/20 12:00:08;;;;;;;4.93;4.13;;;26.40;99.90;;;;;;4878760;29;20243;-86
2023/06/20 12:02:39;;;;;;;5.07;4.57;;;26.50;99.90;;;;;;4878851;29;20247;-86
2023/06/20 12:05:05;;;;;;;5.20;4.70;;;26.60;99.90;;;;;;4879425;29;20188;-87
2023/06/20 12:07:46;;;;;;;5.13;4.68;;;26.60;99.90;;;;;;4879281;29;20192;-85
2023/06/20 12:10:13;;;;;;;4.85;4.35;;;26.80;99.90;;;;;;4880064;29;20164;-86
2023/06/20 12:12:42;;;;;;;4.65;4.25;;;26.70;99.90;;;;;;4879421;29;20693;-87
2023/06/20 12:15:10;;;;;;;5.38;4.47;;;26.60;99.90;;;;;;4878137;29;20191;-86
2023/06/20 12:17:35;;;;;;;4.57;4.18;;;26.50;99.90;;;;;;4879761;29;20262;-87
2023/06/20 12:20:01;;;;;;;4.90;4.35;;;26.60;99.90;;;;;;4879822;29;20336;-87
2023/06/20 12:22:28;;;;;;;5.50;4.20;;;26.40;99.90;;;;;;4877673;29;20184;-86
2023/06/20 12:24:54;;;;;;;3.58;3.28;;;26.50;99.90;;;;;;4879701;29;20180;-85
2023/06/20 12:27:20;;;;;;;5.25;3.28;;;26.70;99.90;;;;;;4878679;29;20203;-86
2023/06/20 12:29:46;;;;;;;4.32;3.92;;;27.00;99.90;;;;;;4880290;29;20188;-87
2023/06/20 12:32:11;;;;;;;4.97;3.55;;;27.10;99.90;;;;;;4878110;29;20188;-86
2023/06/20 12:34:37;;;;;;;6.00;3.75;;;27.10;99.90;;;;;;4877351;29;20623;-85
2023/06/20 12:37:03;;;;;;;4.00;3.70;;;27.00;99.90;;;;;;4878095;29;20804;-86
2023/06/20 12:39:28;;;;;;;3.85;3.30;;;27.20;99.90;;;;;;4878735;29;20207;-87
2023/06/20 12:41:54;;;;;;;4.07;3.78;;;27.20;99.90;;;;;;4879926;29;20549;-87
2023/06/20 12:44:20;;;;;;;3.78;3.30;;;27.30;99.90;;;;;;4878792;29;20586;-86
2023/06/20 12:46:46;;;;;;;5.00;3.63;;;27.60;99.90;;;;;;4877323;29;20188;-87